Terminal Aerodrome Forecast
Issued by NWS Jackson, KY

Home | Current Version | Previous Version | Text Only | Print | Product List | Glossary Off
Versions: 1 2 3 4 5 6 7 8 9 10 11 12 13 14 15 16 17

040
FTUS43 KJKL 161324 AAA
TAFLOZ
TAF AMD
KLOZ 161324Z 1613/1712 VRB03KT P6SM OVC002
     FM161400 VRB03KT P6SM SCT080
     FM162000 VRB03KT P6SM VCTS BKN040CB
     FM170000 VRB03KT P6SM SCT040 BKN250=

USA.gov is the U.S. government's official web portal to all federal, state and local government web resources and services.